sensor_id;sensor_type;location;lat;lon;timestamp;P1;durP1;ratioP1;P2;durP2;ratioP2
76536;SDS011;65381;51.254;15.592;2023-03-01T00:00:04;2.40;;;1.70;;
76536;SDS011;65381;51.254;15.592;2023-03-01T00:02:57;0.95;;;0.88;;
76536;SDS011;65381;51.254;15.592;2023-03-01T00:05:25;5.63;;;5.32;;
76536;SDS011;65381;51.254;15.592;2023-03-01T00:07:53;0.60;;;0.60;;
76536;SDS011;65381;51.254;15.592;2023-03-01T00:10:22;8.40;;;5.38;;
76536;SDS011;65381;51.254;15.592;2023-03-01T00:12:51;0.00;;;0.00;;
76536;SDS011;65381;51.254;15.592;2023-03-01T00:15:19;2.72;;;2.60;;
76536;SDS011;65381;51.254;15.592;2023-03-01T00:17:48;6.22;;;2.85;;
76536;SDS011;65381;51.254;15.592;2023-03-01T00:20:17;4.93;;;2.85;;
76536;SDS011;65381;51.254;15.592;2023-03-01T00:22:46;2.70;;;2.50;;
76536;SDS011;65381;51.254;15.592;2023-03-01T00:25:14;4.30;;;1.88;;
76536;SDS011;65381;51.254;15.592;2023-03-01T00:27:43;12.27;;;4.47;;
76536;SDS011;65381;51.254;15.592;2023-03-01T00:30:10;4.32;;;3.65;;
76536;SDS011;65381;51.254;15.592;2023-03-01T00:32:39;0.00;;;0.00;;
76536;SDS011;65381;51.254;15.592;2023-03-01T00:35:07;2.17;;;1.48;;
76536;SDS011;65381;51.254;15.592;2023-03-01T00:37:35;5.18;;;4.07;;
76536;SDS011;65381;51.254;15.592;2023-03-01T00:40:04;8.27;;;5.20;;
76536;SDS011;65381;51.254;15.592;2023-03-01T00:42:34;16.52;;;4.75;;
76536;SDS011;65381;51.254;15.592;2023-03-01T00:45:03;11.70;;;1.67;;
76536;SDS011;65381;51.254;15.592;2023-03-01T00:47:32;2.83;;;2.60;;
76536;SDS011;65381;51.254;15.592;2023-03-01T00:50:00;0.00;;;0.00;;
76536;SDS011;65381;51.254;15.592;2023-03-01T00:52:28;1.70;;;1.58;;
76536;SDS011;65381;51.254;15.592;2023-03-01T00:54:56;1.67;;;1.40;;
76536;SDS011;65381;51.254;15.592;2023-03-01T00:57:25;1.70;;;1.63;;
76536;SDS011;65381;51.254;15.592;2023-03-01T00:59:53;0.85;;;0.63;;
76536;SDS011;65381;51.254;15.592;2023-03-01T01:04:53;0.00;;;0.00;;
76536;SDS011;65381;51.254;15.592;2023-03-01T01:07:21;0.15;;;0.15;;
76536;SDS011;65381;51.254;15.592;2023-03-01T01:09:50;1.02;;;0.98;;
76536;SDS011;65381;51.254;15.592;2023-03-01T01:12:19;0.60;;;0.60;;
76536;SDS011;65381;51.254;15.592;2023-03-01T01:14:47;2.67;;;2.22;;
76536;SDS011;65381;51.254;15.592;2023-03-01T01:17:16;0.20;;;0.20;;
76536;SDS011;65381;51.254;15.592;2023-03-01T01:19:44;0.30;;;0.30;;
76536;SDS011;65381;51.254;15.592;2023-03-01T01:22:12;0.68;;;0.68;;
76536;SDS011;65381;51.254;15.592;2023-03-01T01:24:40;0.70;;;0.70;;
76536;SDS011;65381;51.254;15.592;2023-03-01T01:27:09;2.05;;;1.38;;
76536;SDS011;65381;51.254;15.592;2023-03-01T01:29:37;9.48;;;1.33;;
76536;SDS011;65381;51.254;15.592;2023-03-01T01:32:05;0.00;;;0.00;;
76536;SDS011;65381;51.254;15.592;2023-03-01T01:34:33;0.98;;;0.98;;
76536;SDS011;65381;51.254;15.592;2023-03-01T01:37:02;1.70;;;0.65;;
76536;SDS011;65381;51.254;15.592;2023-03-01T01:39:30;0.10;;;0.10;;
76536;SDS011;65381;51.254;15.592;2023-03-01T01:41:59;0.70;;;0.70;;
76536;SDS011;65381;51.254;15.592;2023-03-01T01:44:28;0.77;;;0.73;;
76536;SDS011;65381;51.254;15.592;2023-03-01T01:49:49;2.97;;;2.85;;
76536;SDS011;65381;51.254;15.592;2023-03-01T01:52:26;10.27;;;4.35;;
76536;SDS011;65381;51.254;15.592;2023-03-01T01:55:05;3.42;;;0.82;;
76536;SDS011;65381;51.254;15.592;2023-03-01T01:57:41;2.22;;;2.00;;
76536;SDS011;65381;51.254;15.592;2023-03-01T02:00:16;0.03;;;0.03;;
76536;SDS011;65381;51.254;15.592;2023-03-01T02:02:48;1.38;;;1.38;;
76536;SDS011;65381;51.254;15.592;2023-03-01T02:08:05;0.13;;;0.13;;
76536;SDS011;65381;51.254;15.592;2023-03-01T02:10:36;2.90;;;2.75;;
76536;SDS011;65381;51.254;15.592;2023-03-01T02:13:06;0.95;;;0.95;;
76536;SDS011;65381;51.254;15.592;2023-03-01T02:15:34;0.13;;;0.13;;
76536;SDS011;65381;51.254;15.592;2023-03-01T02:18:04;0.32;;;0.32;;
76536;SDS011;65381;51.254;15.592;2023-03-01T02:20:35;0.90;;;0.90;;
76536;SDS011;65381;51.254;15.592;2023-03-01T02:23:08;0.63;;;0.63;;
76536;SDS011;65381;51.254;15.592;2023-03-01T02:28:41;2.20;;;1.50;;
76536;SDS011;65381;51.254;15.592;2023-03-01T02:31:14;2.75;;;1.55;;
76536;SDS011;65381;51.254;15.592;2023-03-01T02:34:05;0.25;;;0.25;;
76536;SDS011;65381;51.254;15.592;2023-03-01T02:36:36;2.58;;;0.85;;
76536;SDS011;65381;51.254;15.592;2023-03-01T02:39:07;2.25;;;1.45;;
76536;SDS011;65381;51.254;15.592;2023-03-01T02:41:42;0.35;;;0.32;;
76536;SDS011;65381;51.254;15.592;2023-03-01T02:44:16;0.90;;;0.90;;
76536;SDS011;65381;51.254;15.592;2023-03-01T02:46:46;3.35;;;1.75;;
76536;SDS011;65381;51.254;15.592;2023-03-01T02:49:19;3.63;;;2.67;;
76536;SDS011;65381;51.254;15.592;2023-03-01T02:51:56;8.75;;;3.92;;
76536;SDS011;65381;51.254;15.592;2023-03-01T02:57:06;6.53;;;2.78;;
76536;SDS011;65381;51.254;15.592;2023-03-01T02:59:37;4.88;;;3.08;;
76536;SDS011;65381;51.254;15.592;2023-03-01T03:02:22;0.70;;;0.70;;
76536;SDS011;65381;51.254;15.592;2023-03-01T03:05:16;0.35;;;0.35;;
76536;SDS011;65381;51.254;15.592;2023-03-01T03:07:46;1.02;;;0.98;;
76536;SDS011;65381;51.254;15.592;2023-03-01T03:10:20;2.30;;;1.85;;
76536;SDS011;65381;51.254;15.592;2023-03-01T03:12:52;1.30;;;1.08;;
76536;SDS011;65381;51.254;15.592;2023-03-01T03:15:23;3.58;;;1.40;;
76536;SDS011;65381;51.254;15.592;2023-03-01T03:17:54;0.30;;;0.30;;
76536;SDS011;65381;51.254;15.592;2023-03-01T03:20:25;0.10;;;0.10;;
76536;SDS011;65381;51.254;15.592;2023-03-01T03:22:56;1.02;;;1.02;;
76536;SDS011;65381;51.254;15.592;2023-03-01T03:25:28;0.90;;;0.40;;
76536;SDS011;65381;51.254;15.592;2023-03-01T03:27:57;1.27;;;1.27;;
76536;SDS011;65381;51.254;15.592;2023-03-01T03:30:27;0.43;;;0.43;;
76536;SDS011;65381;51.254;15.592;2023-03-01T03:32:59;11.35;;;6.07;;
76536;SDS011;65381;51.254;15.592;2023-03-01T03:35:32;0.00;;;0.00;;
76536;SDS011;65381;51.254;15.592;2023-03-01T03:38:04;9.55;;;6.38;;
76536;SDS011;65381;51.254;15.592;2023-03-01T03:40:35;5.78;;;2.25;;
76536;SDS011;65381;51.254;15.592;2023-03-01T03:43:05;1.33;;;1.33;;
76536;SDS011;65381;51.254;15.592;2023-03-01T03:45:35;0.00;;;0.00;;
76536;SDS011;65381;51.254;15.592;2023-03-01T03:48:04;0.10;;;0.10;;
76536;SDS011;65381;51.254;15.592;2023-03-01T03:50:34;9.15;;;3.15;;
76536;SDS011;65381;51.254;15.592;2023-03-01T03:53:04;2.58;;;2.47;;
76536;SDS011;65381;51.254;15.592;2023-03-01T03:55:37;3.65;;;3.35;;
76536;SDS011;65381;51.254;15.592;2023-03-01T03:58:09;1.58;;;1.23;;
76536;SDS011;65381;51.254;15.592;2023-03-01T04:00:39;2.22;;;2.05;;
76536;SDS011;65381;51.254;15.592;2023-03-01T04:03:10;5.10;;;4.72;;
76536;SDS011;65381;51.254;15.592;2023-03-01T04:05:41;0.30;;;0.30;;
76536;SDS011;65381;51.254;15.592;2023-03-01T04:08:11;2.40;;;2.00;;
76536;SDS011;65381;51.254;15.592;2023-03-01T04:10:41;1.05;;;0.95;;
76536;SDS011;65381;51.254;15.592;2023-03-01T04:13:12;1.98;;;1.88;;
76536;SDS011;65381;51.254;15.592;2023-03-01T04:15:42;5.25;;;2.72;;
76536;SDS011;65381;51.254;15.592;2023-03-01T04:18:12;2.35;;;2.22;;
76536;SDS011;65381;51.254;15.592;2023-03-01T04:20:43;0.05;;;0.05;;
76536;SDS011;65381;51.254;15.592;2023-03-01T04:23:16;0.03;;;0.03;;
76536;SDS011;65381;51.254;15.592;2023-03-01T04:25:50;1.20;;;1.17;;
76536;SDS011;65381;51.254;15.592;2023-03-01T04:28:26;0.60;;;0.60;;
76536;SDS011;65381;51.254;15.592;2023-03-01T04:31:05;1.23;;;1.15;;
76536;SDS011;65381;51.254;15.592;2023-03-01T04:33:52;0.17;;;0.17;;
76536;SDS011;65381;51.254;15.592;2023-03-01T04:36:23;0.52;;;0.52;;
76536;SDS011;65381;51.254;15.592;2023-03-01T04:38:54;1.38;;;1.27;;
76536;SDS011;65381;51.254;15.592;2023-03-01T04:41:25;5.97;;;1.60;;
76536;SDS011;65381;51.254;15.592;2023-03-01T04:43:53;1.05;;;1.05;;
76536;SDS011;65381;51.254;15.592;2023-03-01T04:46:21;0.73;;;0.73;;
76536;SDS011;65381;51.254;15.592;2023-03-01T04:48:49;0.57;;;0.25;;
76536;SDS011;65381;51.254;15.592;2023-03-01T04:51:17;1.02;;;1.02;;
76536;SDS011;65381;51.254;15.592;2023-03-01T04:53:46;1.00;;;0.93;;
76536;SDS011;65381;51.254;15.592;2023-03-01T04:56:17;2.67;;;2.42;;
76536;SDS011;65381;51.254;15.592;2023-03-01T04:58:49;0.20;;;0.20;;
76536;SDS011;65381;51.254;15.592;2023-03-01T05:01:23;1.38;;;1.27;;
76536;SDS011;65381;51.254;15.592;2023-03-01T05:03:52;0.30;;;0.30;;
76536;SDS011;65381;51.254;15.592;2023-03-01T05:06:20;0.73;;;0.73;;
76536;SDS011;65381;51.254;15.592;2023-03-01T05:08:49;0.38;;;0.38;;
76536;SDS011;65381;51.254;15.592;2023-03-01T05:11:17;0.57;;;0.57;;
76536;SDS011;65381;51.254;15.592;2023-03-01T05:13:45;0.28;;;0.28;;
76536;SDS011;65381;51.254;15.592;2023-03-01T05:16:14;0.40;;;0.40;;
76536;SDS011;65381;51.254;15.592;2023-03-01T05:18:42;0.28;;;0.28;;
76536;SDS011;65381;51.254;15.592;2023-03-01T05:21:13;2.47;;;1.95;;
76536;SDS011;65381;51.254;15.592;2023-03-01T05:23:44;1.98;;;1.48;;
76536;SDS011;65381;51.254;15.592;2023-03-01T05:26:14;4.13;;;2.08;;
76536;SDS011;65381;51.254;15.592;2023-03-01T05:28:59;2.95;;;1.30;;
76536;SDS011;65381;51.254;15.592;2023-03-01T05:31:30;6.13;;;2.78;;
76536;SDS011;65381;51.254;15.592;2023-03-01T05:33:58;14.43;;;7.00;;
76536;SDS011;65381;51.254;15.592;2023-03-01T05:36:26;2.65;;;1.58;;
76536;SDS011;65381;51.254;15.592;2023-03-01T05:38:54;5.32;;;3.08;;
76536;SDS011;65381;51.254;15.592;2023-03-01T05:41:25;1.95;;;1.58;;
76536;SDS011;65381;51.254;15.592;2023-03-01T05:43:54;1.33;;;0.30;;
76536;SDS011;65381;51.254;15.592;2023-03-01T05:46:21;0.20;;;0.20;;
76536;SDS011;65381;51.254;15.592;2023-03-01T05:48:55;1.48;;;1.40;;
76536;SDS011;65381;51.254;15.592;2023-03-01T05:51:23;0.73;;;0.73;;
76536;SDS011;65381;51.254;15.592;2023-03-01T05:53:53;2.80;;;2.08;;
76536;SDS011;65381;51.254;15.592;2023-03-01T05:56:21;0.70;;;0.70;;
76536;SDS011;65381;51.254;15.592;2023-03-01T05:58:49;0.50;;;0.50;;
76536;SDS011;65381;51.254;15.592;2023-03-01T06:01:17;0.75;;;0.70;;
76536;SDS011;65381;51.254;15.592;2023-03-01T06:03:46;1.33;;;0.68;;
76536;SDS011;65381;51.254;15.592;2023-03-01T06:06:13;7.82;;;1.63;;
76536;SDS011;65381;51.254;15.592;2023-03-01T06:08:42;1.67;;;1.10;;
76536;SDS011;65381;51.254;15.592;2023-03-01T06:11:10;0.77;;;0.40;;
76536;SDS011;65381;51.254;15.592;2023-03-01T06:13:38;0.32;;;0.32;;
76536;SDS011;65381;51.254;15.592;2023-03-01T06:16:09;0.90;;;0.90;;
76536;SDS011;65381;51.254;15.592;2023-03-01T06:18:38;0.43;;;0.43;;
76536;SDS011;65381;51.254;15.592;2023-03-01T06:21:06;1.27;;;1.25;;
76536;SDS011;65381;51.254;15.592;2023-03-01T06:23:36;2.63;;;2.28;;
76536;SDS011;65381;51.254;15.592;2023-03-01T06:26:07;2.95;;;2.17;;
76536;SDS011;65381;51.254;15.592;2023-03-01T06:28:37;17.50;;;10.15;;
76536;SDS011;65381;51.254;15.592;2023-03-01T06:31:04;4.57;;;3.97;;
76536;SDS011;65381;51.254;15.592;2023-03-01T06:33:36;3.15;;;2.92;;
76536;SDS011;65381;51.254;15.592;2023-03-01T06:36:04;8.15;;;3.08;;
76536;SDS011;65381;51.254;15.592;2023-03-01T06:38:33;5.45;;;4.95;;
76536;SDS011;65381;51.254;15.592;2023-03-01T06:41:01;3.42;;;3.13;;
76536;SDS011;65381;51.254;15.592;2023-03-01T06:43:30;4.82;;;4.38;;
76536;SDS011;65381;51.254;15.592;2023-03-01T06:45:59;2.33;;;2.08;;
76536;SDS011;65381;51.254;15.592;2023-03-01T06:48:28;2.78;;;1.67;;
76536;SDS011;65381;51.254;15.592;2023-03-01T06:50:57;3.40;;;3.15;;
76536;SDS011;65381;51.254;15.592;2023-03-01T06:53:27;3.42;;;3.15;;
76536;SDS011;65381;51.254;15.592;2023-03-01T06:55:56;0.80;;;0.80;;
76536;SDS011;65381;51.254;15.592;2023-03-01T06:58:24;0.47;;;0.47;;
76536;SDS011;65381;51.254;15.592;2023-03-01T07:00:53;0.88;;;0.85;;
76536;SDS011;65381;51.254;15.592;2023-03-01T07:03:21;9.05;;;2.95;;
76536;SDS011;65381;51.254;15.592;2023-03-01T07:05:49;10.55;;;7.07;;
76536;SDS011;65381;51.254;15.592;2023-03-01T07:08:21;1.75;;;1.65;;
76536;SDS011;65381;51.254;15.592;2023-03-01T07:10:54;2.90;;;2.63;;
76536;SDS011;65381;51.254;15.592;2023-03-01T07:13:23;4.03;;;2.60;;
76536;SDS011;65381;51.254;15.592;2023-03-01T07:15:52;0.10;;;0.10;;
76536;SDS011;65381;51.254;15.592;2023-03-01T07:18:20;0.65;;;0.63;;
76536;SDS011;65381;51.254;15.592;2023-03-01T07:20:48;4.57;;;3.97;;
76536;SDS011;65381;51.254;15.592;2023-03-01T07:23:17;3.92;;;3.63;;
76536;SDS011;65381;51.254;15.592;2023-03-01T07:25:51;1.85;;;1.73;;
76536;SDS011;65381;51.254;15.592;2023-03-01T07:28:22;8.30;;;4.53;;
76536;SDS011;65381;51.254;15.592;2023-03-01T07:30:53;4.07;;;3.05;;
76536;SDS011;65381;51.254;15.592;2023-03-01T07:33:23;5.50;;;2.72;;
76536;SDS011;65381;51.254;15.592;2023-03-01T07:35:58;9.32;;;7.80;;
76536;SDS011;65381;51.254;15.592;2023-03-01T07:38:33;5.55;;;4.90;;
76536;SDS011;65381;51.254;15.592;2023-03-01T07:41:01;11.75;;;6.25;;
76536;SDS011;65381;51.254;15.592;2023-03-01T07:43:31;18.80;;;7.53;;
76536;SDS011;65381;51.254;15.592;2023-03-01T07:45:59;13.32;;;7.55;;
76536;SDS011;65381;51.254;15.592;2023-03-01T07:48:30;23.00;;;6.18;;
76536;SDS011;65381;51.254;15.592;2023-03-01T07:51:02;8.38;;;4.78;;
76536;SDS011;65381;51.254;15.592;2023-03-01T07:53:32;10.80;;;4.68;;
76536;SDS011;65381;51.254;15.592;2023-03-01T07:56:05;8.55;;;5.00;;
76536;SDS011;65381;51.254;15.592;2023-03-01T07:58:38;19.88;;;10.05;;
76536;SDS011;65381;51.254;15.592;2023-03-01T08:01:12;14.90;;;8.32;;
76536;SDS011;65381;51.254;15.592;2023-03-01T08:03:44;13.07;;;7.40;;
76536;SDS011;65381;51.254;15.592;2023-03-01T08:06:14;11.85;;;7.30;;
76536;SDS011;65381;51.254;15.592;2023-03-01T08:08:44;7.95;;;6.40;;
76536;SDS011;65381;51.254;15.592;2023-03-01T08:11:13;6.45;;;5.57;;
76536;SDS011;65381;51.254;15.592;2023-03-01T08:13:42;17.05;;;9.52;;
76536;SDS011;65381;51.254;15.592;2023-03-01T08:16:12;12.43;;;6.72;;
76536;SDS011;65381;51.254;15.592;2023-03-01T08:18:42;16.20;;;11.30;;
76536;SDS011;65381;51.254;15.592;2023-03-01T08:21:15;15.10;;;7.35;;
76536;SDS011;65381;51.254;15.592;2023-03-01T08:23:45;21.10;;;11.52;;
76536;SDS011;65381;51.254;15.592;2023-03-01T08:26:14;18.35;;;8.90;;
76536;SDS011;65381;51.254;15.592;2023-03-01T08:28:45;12.82;;;8.73;;
76536;SDS011;65381;51.254;15.592;2023-03-01T08:31:20;11.77;;;8.18;;
76536;SDS011;65381;51.254;15.592;2023-03-01T08:33:56;13.15;;;6.68;;
76536;SDS011;65381;51.254;15.592;2023-03-01T08:36:28;9.05;;;5.60;;
76536;SDS011;65381;51.254;15.592;2023-03-01T08:39:00;12.45;;;8.07;;
76536;SDS011;65381;51.254;15.592;2023-03-01T08:41:28;17.13;;;7.13;;
76536;SDS011;65381;51.254;15.592;2023-03-01T08:43:57;13.80;;;5.82;;
76536;SDS011;65381;51.254;15.592;2023-03-01T08:46:29;7.65;;;4.57;;
76536;SDS011;65381;51.254;15.592;2023-03-01T08:49:03;5.60;;;4.40;;
76536;SDS011;65381;51.254;15.592;2023-03-01T08:51:33;15.75;;;9.40;;
76536;SDS011;65381;51.254;15.592;2023-03-01T08:54:06;13.70;;;7.32;;
76536;SDS011;65381;51.254;15.592;2023-03-01T08:56:38;15.30;;;5.47;;
76536;SDS011;65381;51.254;15.592;2023-03-01T08:59:07;19.05;;;6.05;;
76536;SDS011;65381;51.254;15.592;2023-03-01T09:01:37;14.93;;;7.20;;
76536;SDS011;65381;51.254;15.592;2023-03-01T09:04:06;10.27;;;6.90;;
76536;SDS011;65381;51.254;15.592;2023-03-01T09:06:34;7.05;;;6.32;;
76536;SDS011;65381;51.254;15.592;2023-03-01T09:09:05;9.20;;;5.72;;
76536;SDS011;65381;51.254;15.592;2023-03-01T09:11:34;4.72;;;3.78;;
76536;SDS011;65381;51.254;15.592;2023-03-01T09:14:06;10.80;;;5.28;;
76536;SDS011;65381;51.254;15.592;2023-03-01T09:16:34;12.30;;;5.95;;
76536;SDS011;65381;51.254;15.592;2023-03-01T09:19:06;12.85;;;5.05;;
76536;SDS011;65381;51.254;15.592;2023-03-01T09:21:36;12.52;;;6.82;;
76536;SDS011;65381;51.254;15.592;2023-03-01T09:24:11;5.97;;;4.25;;
76536;SDS011;65381;51.254;15.592;2023-03-01T09:26:41;8.77;;;5.07;;
76536;SDS011;65381;51.254;15.592;2023-03-01T09:29:16;9.05;;;4.10;;
76536;SDS011;65381;51.254;15.592;2023-03-01T09:31:44;2.60;;;2.40;;
76536;SDS011;65381;51.254;15.592;2023-03-01T09:34:13;15.25;;;7.80;;
76536;SDS011;65381;51.254;15.592;2023-03-01T09:36:43;20.67;;;10.20;;
76536;SDS011;65381;51.254;15.592;2023-03-01T09:39:11;19.02;;;8.07;;
76536;SDS011;65381;51.254;15.592;2023-03-01T09:42:01;16.98;;;8.80;;
76536;SDS011;65381;51.254;15.592;2023-03-01T09:47:29;13.82;;;7.18;;
76536;SDS011;65381;51.254;15.592;2023-03-01T09:50:17;30.77;;;11.68;;
76536;SDS011;65381;51.254;15.592;2023-03-01T09:53:00;14.27;;;7.22;;
76536;SDS011;65381;51.254;15.592;2023-03-01T09:55:38;25.05;;;13.05;;
76536;SDS011;65381;51.254;15.592;2023-03-01T10:01:58;4.35;;;3.30;;
76536;SDS011;65381;51.254;15.592;2023-03-01T10:09:38;17.05;;;5.43;;
76536;SDS011;65381;51.254;15.592;2023-03-01T10:12:11;7.90;;;5.25;;
76536;SDS011;65381;51.254;15.592;2023-03-01T10:20:05;12.93;;;8.18;;
76536;SDS011;65381;51.254;15.592;2023-03-01T10:22:42;6.82;;;5.10;;
76536;SDS011;65381;51.254;15.592;2023-03-01T10:25:13;8.43;;;4.68;;
76536;SDS011;65381;51.254;15.592;2023-03-01T10:30:53;6.88;;;3.08;;
76536;SDS011;65381;51.254;15.592;2023-03-01T10:35:58;11.85;;;6.75;;
76536;SDS011;65381;51.254;15.592;2023-03-01T10:38:27;16.08;;;6.45;;
76536;SDS011;65381;51.254;15.592;2023-03-01T10:41:00;4.85;;;3.95;;
76536;SDS011;65381;51.254;15.592;2023-03-01T10:46:36;11.88;;;5.35;;
76536;SDS011;65381;51.254;15.592;2023-03-01T10:51:48;10.93;;;5.82;;
76536;SDS011;65381;51.254;15.592;2023-03-01T10:54:23;16.88;;;8.70;;
76536;SDS011;65381;51.254;15.592;2023-03-01T10:56:56;18.27;;;8.70;;
76536;SDS011;65381;51.254;15.592;2023-03-01T10:59:31;5.57;;;2.58;;
76536;SDS011;65381;51.254;15.592;2023-03-01T11:07:46;22.08;;;8.50;;
76536;SDS011;65381;51.254;15.592;2023-03-01T11:10:32;14.40;;;6.95;;
76536;SDS011;65381;51.254;15.592;2023-03-01T11:13:16;25.75;;;7.82;;
76536;SDS011;65381;51.254;15.592;2023-03-01T11:16:02;7.07;;;5.18;;
76536;SDS011;65381;51.254;15.592;2023-03-01T11:18:33;28.75;;;4.80;;
76536;SDS011;65381;51.254;15.592;2023-03-01T11:21:15;10.43;;;5.40;;
76536;SDS011;65381;51.254;15.592;2023-03-01T11:23:45;9.05;;;4.65;;
76536;SDS011;65381;51.254;15.592;2023-03-01T11:26:14;10.43;;;5.43;;
76536;SDS011;65381;51.254;15.592;2023-03-01T11:31:16;4.30;;;3.28;;
76536;SDS011;65381;51.254;15.592;2023-03-01T11:33:48;21.88;;;7.80;;
76536;SDS011;65381;51.254;15.592;2023-03-01T11:36:32;12.00;;;6.18;;
76536;SDS011;65381;51.254;15.592;2023-03-01T11:39:27;16.13;;;7.05;;
76536;SDS011;65381;51.254;15.592;2023-03-01T11:42:12;6.32;;;4.07;;
76536;SDS011;65381;51.254;15.592;2023-03-01T11:44:49;9.70;;;3.42;;
76536;SDS011;65381;51.254;15.592;2023-03-01T11:49:57;12.68;;;5.05;;
76536;SDS011;65381;51.254;15.592;2023-03-01T11:52:45;4.78;;;3.38;;
76536;SDS011;65381;51.254;15.592;2023-03-01T12:01:17;5.88;;;3.28;;
76536;SDS011;65381;51.254;15.592;2023-03-01T12:21:52;5.45;;;2.33;;
76536;SDS011;65381;51.254;15.592;2023-03-01T12:29:39;9.00;;;5.25;;
76536;SDS011;65381;51.254;15.592;2023-03-01T12:32:15;6.97;;;2.92;;
76536;SDS011;65381;51.254;15.592;2023-03-01T12:38:16;5.97;;;2.90;;
76536;SDS011;65381;51.254;15.592;2023-03-01T12:41:10;5.80;;;3.15;;
76536;SDS011;65381;51.254;15.592;2023-03-01T12:46:10;5.38;;;2.40;;
76536;SDS011;65381;51.254;15.592;2023-03-01T12:48:51;11.40;;;4.90;;
76536;SDS011;65381;51.254;15.592;2023-03-01T12:51:35;11.45;;;4.00;;
76536;SDS011;65381;51.254;15.592;2023-03-01T12:54:11;7.22;;;4.07;;
76536;SDS011;65381;51.254;15.592;2023-03-01T12:56:43;7.18;;;3.50;;
76536;SDS011;65381;51.254;15.592;2023-03-01T12:59:39;15.02;;;6.50;;
76536;SDS011;65381;51.254;15.592;2023-03-01T13:08:08;19.75;;;10.07;;
76536;SDS011;65381;51.254;15.592;2023-03-01T13:11:05;9.18;;;4.78;;
76536;SDS011;65381;51.254;15.592;2023-03-01T13:13:46;2.53;;;2.08;;
76536;SDS011;65381;51.254;15.592;2023-03-01T13:18:47;7.30;;;4.50;;
76536;SDS011;65381;51.254;15.592;2023-03-01T13:21:28;7.13;;;2.50;;
76536;SDS011;65381;51.254;15.592;2023-03-01T13:23:59;3.97;;;2.40;;
76536;SDS011;65381;51.254;15.592;2023-03-01T13:26:28;11.88;;;5.63;;
76536;SDS011;65381;51.254;15.592;2023-03-01T13:28:57;5.97;;;3.33;;
76536;SDS011;65381;51.254;15.592;2023-03-01T13:33:59;3.90;;;3.05;;
76536;SDS011;65381;51.254;15.592;2023-03-01T13:39:04;0.93;;;0.80;;
76536;SDS011;65381;51.254;15.592;2023-03-01T13:41:54;1.55;;;1.30;;
76536;SDS011;65381;51.254;15.592;2023-03-01T13:44:26;9.65;;;5.32;;
76536;SDS011;65381;51.254;15.592;2023-03-01T13:49:42;4.18;;;2.45;;
76536;SDS011;65381;51.254;15.592;2023-03-01T13:55:24;5.05;;;2.13;;
76536;SDS011;65381;51.254;15.592;2023-03-01T13:57:58;2.70;;;1.90;;
76536;SDS011;65381;51.254;15.592;2023-03-01T14:00:38;8.13;;;3.88;;
76536;SDS011;65381;51.254;15.592;2023-03-01T14:05:41;1.25;;;0.98;;
76536;SDS011;65381;51.254;15.592;2023-03-01T14:08:22;1.25;;;0.65;;
76536;SDS011;65381;51.254;15.592;2023-03-01T14:19:12;0.63;;;0.60;;
76536;SDS011;65381;51.254;15.592;2023-03-01T14:22:02;7.35;;;3.28;;
76536;SDS011;65381;51.254;15.592;2023-03-01T14:24:40;4.18;;;3.15;;
76536;SDS011;65381;51.254;15.592;2023-03-01T14:27:18;0.03;;;0.03;;
76536;SDS011;65381;51.254;15.592;2023-03-01T14:29:57;3.78;;;0.75;;
76536;SDS011;65381;51.254;15.592;2023-03-01T14:32:56;9.50;;;4.38;;
76536;SDS011;65381;51.254;15.592;2023-03-01T14:35:29;0.93;;;0.60;;
76536;SDS011;65381;51.254;15.592;2023-03-01T14:37:59;2.03;;;1.48;;
76536;SDS011;65381;51.254;15.592;2023-03-01T14:42:59;1.55;;;1.20;;
76536;SDS011;65381;51.254;15.592;2023-03-01T14:45:31;2.22;;;0.60;;
76536;SDS011;65381;51.254;15.592;2023-03-01T14:48:02;2.70;;;2.42;;
76536;SDS011;65381;51.254;15.592;2023-03-01T14:50:33;1.70;;;1.38;;
76536;SDS011;65381;51.254;15.592;2023-03-01T14:53:04;4.10;;;1.05;;
76536;SDS011;65381;51.254;15.592;2023-03-01T14:55:35;3.53;;;1.15;;
76536;SDS011;65381;51.254;15.592;2023-03-01T14:58:15;0.30;;;0.30;;
76536;SDS011;65381;51.254;15.592;2023-03-01T15:01:02;0.77;;;0.77;;
76536;SDS011;65381;51.254;15.592;2023-03-01T15:06:07;1.52;;;1.05;;
76536;SDS011;65381;51.254;15.592;2023-03-01T15:08:36;0.05;;;0.05;;
76536;SDS011;65381;51.254;15.592;2023-03-01T15:11:22;0.73;;;0.73;;
76536;SDS011;65381;51.254;15.592;2023-03-01T15:13:54;4.90;;;1.42;;
76536;SDS011;65381;51.254;15.592;2023-03-01T15:16:26;1.33;;;1.30;;
76536;SDS011;65381;51.254;15.592;2023-03-01T15:18:56;0.35;;;0.30;;
76536;SDS011;65381;51.254;15.592;2023-03-01T15:21:35;0.20;;;0.20;;
76536;SDS011;65381;51.254;15.592;2023-03-01T15:26:53;3.70;;;1.73;;
76536;SDS011;65381;51.254;15.592;2023-03-01T15:29:35;4.20;;;1.35;;
76536;SDS011;65381;51.254;15.592;2023-03-01T15:38:34;0.28;;;0.25;;
76536;SDS011;65381;51.254;15.592;2023-03-01T15:41:25;0.05;;;0.05;;
76536;SDS011;65381;51.254;15.592;2023-03-01T15:43:58;0.35;;;0.35;;
76536;SDS011;65381;51.254;15.592;2023-03-01T15:46:34;1.27;;;0.73;;
76536;SDS011;65381;51.254;15.592;2023-03-01T15:51:48;1.38;;;1.27;;
76536;SDS011;65381;51.254;15.592;2023-03-01T15:54:18;0.68;;;0.68;;
76536;SDS011;65381;51.254;15.592;2023-03-01T15:56:48;0.10;;;0.10;;
76536;SDS011;65381;51.254;15.592;2023-03-01T15:59:18;1.27;;;0.82;;
76536;SDS011;65381;51.254;15.592;2023-03-01T16:01:46;0.95;;;0.38;;
76536;SDS011;65381;51.254;15.592;2023-03-01T16:04:18;0.38;;;0.38;;
76536;SDS011;65381;51.254;15.592;2023-03-01T16:06:50;0.05;;;0.05;;
76536;SDS011;65381;51.254;15.592;2023-03-01T16:09:26;0.20;;;0.20;;
76536;SDS011;65381;51.254;15.592;2023-03-01T16:11:54;2.22;;;2.08;;
76536;SDS011;65381;51.254;15.592;2023-03-01T16:14:24;3.22;;;3.00;;
76536;SDS011;65381;51.254;15.592;2023-03-01T16:16:53;0.65;;;0.65;;
76536;SDS011;65381;51.254;15.592;2023-03-01T16:19:23;0.28;;;0.28;;
76536;SDS011;65381;51.254;15.592;2023-03-01T16:21:51;0.50;;;0.50;;
76536;SDS011;65381;51.254;15.592;2023-03-01T16:24:21;1.73;;;1.02;;
76536;SDS011;65381;51.254;15.592;2023-03-01T16:26:49;1.08;;;0.88;;
76536;SDS011;65381;51.254;15.592;2023-03-01T16:29:18;0.10;;;0.10;;
76536;SDS011;65381;51.254;15.592;2023-03-01T16:31:47;0.05;;;0.05;;
76536;SDS011;65381;51.254;15.592;2023-03-01T16:34:16;1.50;;;1.50;;
76536;SDS011;65381;51.254;15.592;2023-03-01T16:36:44;0.77;;;0.77;;
76536;SDS011;65381;51.254;15.592;2023-03-01T16:41:44;3.63;;;3.08;;
76536;SDS011;65381;51.254;15.592;2023-03-01T16:44:14;5.55;;;3.60;;
76536;SDS011;65381;51.254;15.592;2023-03-01T16:46:41;0.22;;;0.22;;
76536;SDS011;65381;51.254;15.592;2023-03-01T16:49:11;0.80;;;0.80;;
76536;SDS011;65381;51.254;15.592;2023-03-01T16:51:39;4.50;;;2.03;;
76536;SDS011;65381;51.254;15.592;2023-03-01T16:54:14;9.00;;;5.10;;
76536;SDS011;65381;51.254;15.592;2023-03-01T16:56:42;5.28;;;4.38;;
76536;SDS011;65381;51.254;15.592;2023-03-01T16:59:12;11.98;;;5.85;;
76536;SDS011;65381;51.254;15.592;2023-03-01T17:01:41;2.13;;;2.05;;
76536;SDS011;65381;51.254;15.592;2023-03-01T17:04:11;7.43;;;4.70;;
76536;SDS011;65381;51.254;15.592;2023-03-01T17:06:39;7.53;;;1.60;;
76536;SDS011;65381;51.254;15.592;2023-03-01T17:09:09;2.65;;;2.45;;
76536;SDS011;65381;51.254;15.592;2023-03-01T17:11:39;7.80;;;4.22;;
76536;SDS011;65381;51.254;15.592;2023-03-01T17:14:10;3.53;;;2.70;;
76536;SDS011;65381;51.254;15.592;2023-03-01T17:16:38;0.65;;;0.38;;